createdAt,value
2022-09-25T00:01:05.225Z,12.73
2022-09-25T00:03:34.565Z,11.50
2022-09-25T00:06:05.102Z,10.67
2022-09-25T00:08:33.149Z,11.50
2022-09-25T00:11:01.512Z,9.70
2022-09-25T00:13:29.430Z,10.17
2022-09-25T00:16:00.124Z,9.20
2022-09-25T00:18:45.784Z,10.40
2022-09-25T00:21:17.087Z,10.27
2022-09-25T00:23:45.858Z,11.43
2022-09-25T00:26:18.235Z,9.60
2022-09-25T00:28:46.209Z,9.33
2022-09-25T00:31:24.737Z,8.43
2022-09-25T00:33:52.976Z,9.60
2022-09-25T00:36:21.588Z,8.93
2022-09-25T00:38:50.851Z,9.50
2022-09-25T00:41:20.631Z,9.43
2022-09-25T00:43:51.161Z,9.00
2022-09-25T00:46:24.090Z,8.60
2022-09-25T00:48:57.026Z,8.27
2022-09-25T00:51:29.923Z,10.30
2022-09-25T00:54:01.409Z,9.00
2022-09-25T00:56:35.948Z,8.90
2022-09-25T00:59:04.427Z,8.83
2022-09-25T01:01:33.885Z,9.80
2022-09-25T01:04:03.322Z,7.43
2022-09-25T01:06:32.996Z,8.20
2022-09-25T01:09:04.024Z,7.93
2022-09-25T01:11:32.261Z,7.80
2022-09-25T01:14:06.904Z,7.00
2022-09-25T01:16:44.769Z,7.90
2022-09-25T01:19:27.445Z,8.03
2022-09-25T01:22:03.922Z,7.60
2022-09-25T01:24:49.861Z,6.80
2022-09-25T01:27:43.373Z,6.40
2022-09-25T01:30:14.784Z,6.60
2022-09-25T01:32:55.505Z,6.73
2022-09-25T01:35:39.868Z,5.30
2022-09-25T01:38:15.949Z,6.23
2022-09-25T01:40:49.157Z,5.60
2022-09-25T01:43:20.253Z,6.17
2022-09-25T01:45:52.933Z,6.47
2022-09-25T01:48:25.198Z,6.80
2022-09-25T01:51:04.354Z,6.10
2022-09-25T01:53:36.827Z,6.43
2022-09-25T01:56:09.995Z,5.63
2022-09-25T01:58:42.886Z,6.07
2022-09-25T02:01:17.113Z,5.63
2022-09-25T02:03:49.934Z,6.03
2022-09-25T02:06:22.238Z,5.90
2022-09-25T02:08:53.977Z,5.80
2022-09-25T02:11:22.340Z,4.67
2022-09-25T02:13:53.355Z,5.40
2022-09-25T02:16:28.636Z,5.07
2022-09-25T02:19:16.830Z,4.70
2022-09-25T02:21:51.890Z,6.07
2022-09-25T02:24:22.969Z,5.00
2022-09-25T02:26:52.343Z,5.63
2022-09-25T02:29:21.520Z,5.87
2022-09-25T02:31:55.217Z,4.97
2022-09-25T02:34:24.003Z,5.80
2022-09-25T02:36:52.530Z,6.20
2022-09-25T02:39:23.950Z,5.07
2022-09-25T02:42:07.778Z,6.20
2022-09-25T02:44:43.650Z,5.30
2022-09-25T02:47:25.225Z,4.60
2022-09-25T02:50:02.507Z,5.30
2022-09-25T02:52:36.916Z,6.50
2022-09-25T02:55:09.066Z,5.00
2022-09-25T02:57:43.455Z,6.50
2022-09-25T03:00:13.418Z,5.93
2022-09-25T03:02:51.547Z,4.97
2022-09-25T03:05:21.520Z,5.77
2022-09-25T03:08:06.681Z,5.43
2022-09-25T03:10:37.006Z,5.47
2022-09-25T03:13:19.485Z,4.67
2022-09-25T03:15:52.489Z,5.20
2022-09-25T03:18:21.941Z,5.77
2022-09-25T03:20:49.924Z,4.60
2022-09-25T03:23:17.837Z,5.83
2022-09-25T03:25:49.866Z,5.20
2022-09-25T03:28:18.232Z,6.03
2022-09-25T03:30:56.102Z,5.40
2022-09-25T03:33:25.402Z,5.10
2022-09-25T03:36:02.068Z,4.57
2022-09-25T03:38:29.971Z,5.10
2022-09-25T03:40:58.170Z,5.17
2022-09-25T03:43:26.350Z,5.77
2022-09-25T03:45:54.238Z,5.60
2022-09-25T03:48:22.820Z,5.40
2022-09-25T03:50:52.107Z,5.57
2022-09-25T03:53:20.168Z,5.47
2022-09-25T03:55:48.573Z,6.47
2022-09-25T03:58:17.073Z,5.80
2022-09-25T04:00:46.848Z,5.37
2022-09-25T04:03:15.098Z,6.00
2022-09-25T04:05:44.746Z,5.23
2022-09-25T04:08:13.978Z,5.57
2022-09-25T04:10:42.277Z,5.63
2022-09-25T04:13:12.502Z,5.87
2022-09-25T04:15:42.563Z,5.37
2022-09-25T04:18:10.737Z,5.67
2022-09-25T04:20:38.657Z,5.47
2022-09-25T04:23:06.663Z,5.40
2022-09-25T04:25:36.027Z,5.33
2022-09-25T04:28:05.256Z,5.23
2022-09-25T04:30:33.152Z,5.70
2022-09-25T04:33:18.587Z,6.17
2022-09-25T04:35:47.031Z,5.70
2022-09-25T04:38:14.918Z,5.23
2022-09-25T04:40:45.866Z,5.07
2022-09-25T04:43:14.059Z,5.37
2022-09-25T04:45:42.227Z,5.30
2022-09-25T04:48:10.233Z,5.80
2022-09-25T04:50:38.070Z,5.10
2022-09-25T04:53:06.177Z,5.33
2022-09-25T04:55:34.237Z,5.83
2022-09-25T04:58:03.458Z,5.20
2022-09-25T05:00:33.289Z,5.10
2022-09-25T05:03:04.937Z,5.90
2022-09-25T05:05:33.289Z,5.40
2022-09-25T05:08:03.236Z,6.03
2022-09-25T05:10:32.716Z,5.40
2022-09-25T05:13:02.022Z,5.40
2022-09-25T05:15:32.833Z,5.40
2022-09-25T05:18:01.563Z,5.67
2022-09-25T05:20:29.889Z,4.97
2022-09-25T05:22:58.554Z,5.17
2022-09-25T05:25:28.018Z,5.20
2022-09-25T05:27:59.175Z,5.03
2022-09-25T05:30:28.610Z,4.73
2022-09-25T05:32:59.298Z,4.73
2022-09-25T05:35:29.486Z,5.10
2022-09-25T05:37:57.412Z,4.53
2022-09-25T05:40:26.325Z,4.67
2022-09-25T05:42:55.375Z,5.00
2022-09-25T05:45:24.227Z,4.90
2022-09-25T05:48:03.062Z,5.20
2022-09-25T05:50:32.460Z,5.33
2022-09-25T05:53:01.457Z,4.70
2022-09-25T05:55:29.698Z,4.80
2022-09-25T05:58:01.791Z,4.40
2022-09-25T06:00:32.783Z,4.37
2022-09-25T06:03:03.173Z,4.70
2022-09-25T06:05:31.404Z,4.80
2022-09-25T06:07:59.450Z,4.67
2022-09-25T06:10:27.989Z,5.00
2022-09-25T06:12:59.657Z,4.80
2022-09-25T06:15:28.063Z,4.70
2022-09-25T06:17:56.248Z,4.73
2022-09-25T06:20:25.721Z,4.17
2022-09-25T06:22:54.343Z,4.70
2022-09-25T06:25:24.018Z,4.43
2022-09-25T06:27:53.921Z,4.90
2022-09-25T06:30:22.045Z,4.47
2022-09-25T06:32:51.134Z,4.63
2022-09-25T06:35:19.030Z,4.30
2022-09-25T06:37:48.264Z,4.13
2022-09-25T06:40:16.480Z,4.30
2022-09-25T06:42:46.084Z,3.90
2022-09-25T06:45:14.262Z,3.70
2022-09-25T06:47:42.222Z,4.67
2022-09-25T06:50:11.733Z,4.13
2022-09-25T06:52:44.314Z,26.97
2022-09-25T06:55:13.528Z,10.00
2022-09-25T06:57:41.534Z,5.50
2022-09-25T07:00:10.745Z,5.37
2022-09-25T07:02:56.230Z,5.20
2022-09-25T07:05:24.356Z,4.20
2022-09-25T07:07:52.281Z,4.83
2022-09-25T07:10:21.605Z,4.43
2022-09-25T07:12:49.865Z,4.57
2022-09-25T07:15:18.635Z,4.23
2022-09-25T07:17:46.991Z,4.20
2022-09-25T07:20:15.488Z,4.23
2022-09-25T07:22:44.097Z,4.20
2022-09-25T07:25:13.615Z,4.00
2022-09-25T07:27:43.006Z,3.83
2022-09-25T07:30:11.755Z,4.20
2022-09-25T07:32:39.626Z,4.50
2022-09-25T07:35:08.199Z,4.20
2022-09-25T07:37:36.214Z,4.50
2022-09-25T07:40:04.558Z,5.70
2022-09-25T07:42:33.120Z,4.33
2022-09-25T07:45:02.540Z,3.63
2022-09-25T07:47:30.370Z,4.00
2022-09-25T07:49:58.977Z,5.07
2022-09-25T07:52:27.242Z,4.67
2022-09-25T07:54:55.161Z,5.30
2022-09-25T07:57:23.086Z,4.90
2022-09-25T07:59:50.932Z,5.10
2022-09-25T08:02:21.064Z,5.30
2022-09-25T08:04:49.147Z,5.30
2022-09-25T08:07:17.112Z,5.07
2022-09-25T08:09:44.982Z,5.07
2022-09-25T08:12:14.086Z,6.03
2022-09-25T08:14:42.829Z,4.87
2022-09-25T08:17:10.707Z,5.50
2022-09-25T08:19:40.118Z,6.10
2022-09-25T08:22:08.095Z,5.07
2022-09-25T08:24:36.310Z,5.80
2022-09-25T08:27:04.372Z,6.03
2022-09-25T08:29:32.311Z,6.40
2022-09-25T08:32:00.286Z,6.30
2022-09-25T08:34:40.576Z,6.63
2022-09-25T08:37:10.719Z,7.77
2022-09-25T08:39:38.727Z,7.67
2022-09-25T08:42:07.110Z,7.87
2022-09-25T08:44:48.916Z,6.50
2022-09-25T08:47:45.260Z,7.97
2022-09-25T08:50:15.905Z,7.60
2022-09-25T08:52:49.472Z,7.33
2022-09-25T08:55:22.673Z,7.83
2022-09-25T08:57:55.561Z,7.50
2022-09-25T09:00:24.999Z,7.57
2022-09-25T09:02:55.759Z,7.67
2022-09-25T09:05:38.575Z,8.37
2022-09-25T09:08:13.489Z,9.17
2022-09-25T09:10:44.835Z,8.17
2022-09-25T09:13:18.582Z,7.23
2022-09-25T09:15:50.990Z,8.37
2022-09-25T09:18:23.002Z,7.33
2022-09-25T09:20:54.384Z,8.30
2022-09-25T09:23:25.030Z,8.20
2022-09-25T09:26:02.224Z,8.53
2022-09-25T09:28:56.014Z,8.10
2022-09-25T09:31:31.205Z,7.90
2022-09-25T09:34:14.898Z,7.70
2022-09-25T09:36:49.841Z,7.10
2022-09-25T09:39:25.035Z,7.57
2022-09-25T09:42:06.138Z,7.77
2022-09-25T09:44:51.279Z,8.17
2022-09-25T09:47:39.616Z,8.10
2022-09-25T09:50:25.181Z,8.13
2022-09-25T09:53:01.466Z,7.77
2022-09-25T09:55:39.161Z,7.20
2022-09-25T09:58:15.751Z,9.57
2022-09-25T10:00:49.376Z,7.80
2022-09-25T10:03:22.118Z,7.13
2022-09-25T10:06:09.103Z,8.10
2022-09-25T10:08:38.409Z,7.20
2022-09-25T10:11:21.672Z,6.90
2022-09-25T10:13:55.236Z,7.97
2022-09-25T10:16:33.559Z,7.10
2022-09-25T10:19:14.632Z,5.80
2022-09-25T10:22:01.026Z,6.50
2022-09-25T10:24:59.223Z,5.80
2022-09-25T10:27:43.612Z,6.77
2022-09-25T10:30:20.387Z,6.70
2022-09-25T10:32:58.158Z,6.20
2022-09-25T10:35:29.801Z,7.03
2022-09-25T10:38:01.508Z,5.60
2022-09-25T10:40:33.293Z,6.13
2022-09-25T10:43:24.316Z,6.40
2022-09-25T10:46:06.078Z,7.17
2022-09-25T10:48:54.217Z,6.50
2022-09-25T10:51:22.731Z,6.40
2022-09-25T10:53:52.117Z,6.63
2022-09-25T10:56:22.969Z,5.57
2022-09-25T10:58:56.271Z,5.27
2022-09-25T11:01:34.375Z,5.20
2022-09-25T11:04:05.121Z,5.53
2022-09-25T11:06:35.751Z,5.57
2022-09-25T11:09:09.000Z,5.63
2022-09-25T11:11:39.460Z,5.70
2022-09-25T11:14:21.560Z,5.20
2022-09-25T11:16:52.828Z,5.87
2022-09-25T11:19:27.063Z,6.33
2022-09-25T11:22:01.942Z,4.90
2022-09-25T11:24:47.054Z,4.33
2022-09-25T11:27:19.776Z,4.40
2022-09-25T11:29:58.457Z,4.37
2022-09-25T11:32:33.733Z,3.90
2022-09-25T11:35:25.900Z,4.57
2022-09-25T11:38:05.076Z,4.03
2022-09-25T11:40:58.017Z,4.03
2022-09-25T11:43:37.588Z,5.00
2022-09-25T11:48:54.443Z,4.43
2022-09-25T11:51:32.242Z,4.70
2022-09-25T11:54:31.970Z,4.20
2022-09-25T11:57:01.819Z,5.50
2022-09-25T11:59:44.067Z,6.07
2022-09-25T12:02:22.449Z,6.13
2022-09-25T12:05:17.531Z,5.43
2022-09-25T12:08:08.258Z,5.90
2022-09-25T12:10:49.090Z,6.30
2022-09-25T12:13:25.038Z,6.47
2022-09-25T12:16:08.283Z,6.90
2022-09-25T12:18:50.334Z,6.10
2022-09-25T12:21:25.825Z,6.33
2022-09-25T12:23:59.285Z,5.97
2022-09-25T12:26:36.545Z,6.20
2022-09-25T12:29:19.335Z,5.97
2022-09-25T12:32:00.517Z,5.57
2022-09-25T12:34:50.680Z,5.50
2022-09-25T12:37:29.416Z,5.00
2022-09-25T12:39:59.896Z,6.83
2022-09-25T12:42:39.412Z,5.87
2022-09-25T12:45:15.605Z,5.23
2022-09-25T12:47:48.691Z,5.43
2022-09-25T12:50:20.511Z,5.10
2022-09-25T12:52:53.656Z,4.83
2022-09-25T12:55:27.247Z,5.80
2022-09-25T12:58:04.717Z,5.73
2022-09-25T13:00:34.800Z,5.93
2022-09-25T13:03:13.943Z,4.67
2022-09-25T13:05:45.533Z,5.00
2022-09-25T13:08:20.379Z,5.67
2022-09-25T13:10:54.084Z,5.20
2022-09-25T13:13:26.297Z,5.60
2022-09-25T13:16:01.405Z,5.57
2022-09-25T13:18:33.816Z,5.50
2022-09-25T13:21:27.479Z,5.87
2022-09-25T13:23:57.740Z,6.07
2022-09-25T13:26:27.835Z,5.70
2022-09-25T13:28:58.885Z,5.13
2022-09-25T13:31:28.899Z,6.80
2022-09-25T13:34:04.578Z,5.90
2022-09-25T13:36:39.429Z,5.80
2022-09-25T13:39:35.086Z,7.37
2022-09-25T13:42:08.063Z,6.87
2022-09-25T13:44:52.454Z,6.63
2022-09-25T13:47:54.842Z,7.00
2022-09-25T13:50:29.554Z,6.67
2022-09-25T13:53:34.992Z,7.00
2022-09-25T13:56:23.560Z,7.50
2022-09-25T13:59:22.936Z,7.17
2022-09-25T14:01:54.734Z,7.87
2022-09-25T14:04:29.596Z,7.30
2022-09-25T14:07:05.730Z,7.20
2022-09-25T14:09:35.976Z,11.33
2022-09-25T14:12:12.617Z,10.90
2022-09-25T14:14:52.453Z,9.93
2022-09-25T14:17:22.783Z,8.73
2022-09-25T14:19:54.308Z,9.60
2022-09-25T14:22:31.779Z,9.30
2022-09-25T14:25:02.107Z,9.00
2022-09-25T14:27:30.248Z,7.97
2022-09-25T14:30:07.548Z,7.73
2022-09-25T14:32:55.993Z,8.20
2022-09-25T14:35:36.011Z,9.77
2022-09-25T14:38:36.979Z,7.53
2022-09-25T14:41:23.508Z,7.97
2022-09-25T14:44:18.680Z,8.20
2022-09-25T14:46:50.508Z,8.90
2022-09-25T14:49:24.191Z,7.57
2022-09-25T14:51:54.936Z,7.80
2022-09-25T14:54:26.181Z,7.30
2022-09-25T14:56:58.324Z,6.60
2022-09-25T14:59:32.338Z,7.37
2022-09-25T15:02:03.231Z,6.40
2022-09-25T15:04:33.970Z,7.47
2022-09-25T15:07:05.968Z,10.00
2022-09-25T15:09:38.840Z,8.90
2022-09-25T15:12:21.776Z,7.53
2022-09-25T15:15:08.068Z,7.20
2022-09-25T15:17:44.531Z,7.97
2022-09-25T15:20:16.088Z,7.47
2022-09-25T15:22:49.268Z,7.50
2022-09-25T15:25:24.669Z,7.20
2022-09-25T15:27:54.254Z,7.87
2022-09-25T15:30:22.155Z,8.90
2022-09-25T15:32:59.846Z,6.10
2022-09-25T15:35:30.394Z,6.93
2022-09-25T15:38:11.959Z,7.23
2022-09-25T15:40:41.430Z,7.23
2022-09-25T15:43:14.621Z,7.70
2022-09-25T15:45:46.048Z,7.60
2022-09-25T15:48:25.140Z,7.63
2022-09-25T15:50:54.346Z,7.00
2022-09-25T15:53:27.068Z,7.23
2022-09-25T15:56:08.156Z,6.93
2022-09-25T15:58:48.651Z,6.60
2022-09-25T16:01:38.499Z,6.70
2022-09-25T16:04:26.644Z,7.37
2022-09-25T16:06:55.442Z,6.90
2022-09-25T16:09:31.365Z,6.57
2022-09-25T16:12:23.210Z,5.83
2022-09-25T16:14:52.888Z,6.77
2022-09-25T16:17:25.131Z,6.13
2022-09-25T16:20:01.779Z,5.80
2022-09-25T16:22:38.459Z,5.30
2022-09-25T16:25:18.131Z,5.60
2022-09-25T16:27:47.765Z,5.70
2022-09-25T16:30:23.035Z,5.40
2022-09-25T16:32:53.488Z,8.43
2022-09-25T16:35:57.450Z,6.70
2022-09-25T16:38:30.163Z,6.40
2022-09-25T16:41:06.523Z,7.53
2022-09-25T16:43:36.118Z,6.83
2022-09-25T16:46:14.823Z,6.67
2022-09-25T16:48:43.344Z,7.23
2022-09-25T16:51:18.250Z,6.73
2022-09-25T16:53:46.552Z,6.50
2022-09-25T16:56:21.797Z,7.17
2022-09-25T16:58:49.935Z,8.33
2022-09-25T17:01:20.213Z,7.67
2022-09-25T17:03:52.385Z,7.13
2022-09-25T17:06:21.759Z,7.37
2022-09-25T17:08:50.378Z,7.60
2022-09-25T17:11:20.536Z,6.43
2022-09-25T17:13:49.966Z,7.60
2022-09-25T17:16:19.366Z,6.73
2022-09-25T17:18:47.528Z,8.50
2022-09-25T17:21:16.671Z,7.23
2022-09-25T17:23:45.382Z,9.07
2022-09-25T17:26:17.682Z,7.57
2022-09-25T17:28:45.666Z,9.27
2022-09-25T17:31:15.252Z,8.03
2022-09-25T17:33:45.041Z,8.43
2022-09-25T17:36:14.539Z,9.70
2022-09-25T17:38:42.467Z,9.60
2022-09-25T17:41:19.446Z,10.13
2022-09-25T17:43:47.904Z,10.90
2022-09-25T17:46:16.342Z,9.70
2022-09-25T17:48:50.236Z,10.40
2022-09-25T17:51:23.889Z,10.60
2022-09-25T17:53:52.786Z,10.10
2022-09-25T17:56:20.753Z,9.83
2022-09-25T17:58:48.760Z,10.50
2022-09-25T18:01:21.858Z,9.33
2022-09-25T18:03:51.521Z,9.10
2022-09-25T18:06:20.286Z,10.87
2022-09-25T18:08:48.997Z,9.90
2022-09-25T18:11:17.488Z,10.73
2022-09-25T18:13:46.455Z,9.63
2022-09-25T18:16:17.105Z,9.67
2022-09-25T18:19:03.602Z,9.30
2022-09-25T18:21:50.313Z,10.10
2022-09-25T18:24:18.922Z,10.77
2022-09-25T18:26:47.106Z,9.50
2022-09-25T18:29:17.208Z,9.33
2022-09-25T18:31:45.797Z,9.67
2022-09-25T18:34:14.034Z,9.07
2022-09-25T18:36:43.766Z,8.57
2022-09-25T18:39:14.948Z,8.97
2022-09-25T18:41:47.985Z,8.60
2022-09-25T18:44:17.719Z,9.20
2022-09-25T18:46:46.290Z,9.63
2022-09-25T18:49:14.371Z,9.30
2022-09-25T18:51:43.684Z,8.20
2022-09-25T18:54:13.765Z,8.40
2022-09-25T18:56:42.119Z,8.20
2022-09-25T18:59:10.324Z,9.10
2022-09-25T19:01:39.353Z,8.63
2022-09-25T19:04:07.358Z,8.60
2022-09-25T19:06:35.821Z,7.30
2022-09-25T19:09:05.371Z,7.90
2022-09-25T19:11:33.383Z,8.50
2022-09-25T19:14:01.516Z,8.50
2022-09-25T19:16:32.932Z,11.50
2022-09-25T19:19:04.027Z,9.73
2022-09-25T19:21:33.015Z,9.13
2022-09-25T19:24:01.557Z,8.23
2022-09-25T19:26:31.077Z,8.93
2022-09-25T19:28:59.123Z,9.57
2022-09-25T19:31:28.170Z,8.57
2022-09-25T19:33:56.882Z,9.30
2022-09-25T19:36:26.660Z,8.30
2022-09-25T19:38:55.253Z,9.33
2022-09-25T19:41:26.284Z,7.87
2022-09-25T19:43:57.561Z,8.17
2022-09-25T19:46:26.153Z,8.77
2022-09-25T19:48:54.207Z,7.50
2022-09-25T19:51:24.181Z,8.60
2022-09-25T19:53:52.680Z,7.83
2022-09-25T19:56:21.263Z,8.90
2022-09-25T19:58:51.069Z,7.33
2022-09-25T20:01:22.895Z,8.63
2022-09-25T20:03:51.423Z,7.40
2022-09-25T20:06:19.762Z,8.53
2022-09-25T20:08:47.677Z,9.60
2022-09-25T20:11:18.705Z,17.53
2022-09-25T20:13:47.725Z,9.07
2022-09-25T20:16:17.984Z,7.17
2022-09-25T20:18:50.949Z,7.80
2022-09-25T20:21:21.268Z,6.50
2022-09-25T20:23:52.187Z,6.00
2022-09-25T20:26:21.242Z,6.70
2022-09-25T20:28:53.685Z,5.67
2022-09-25T20:31:22.434Z,5.50
2022-09-25T20:33:52.300Z,5.07
2022-09-25T20:36:20.519Z,4.90
2022-09-25T20:38:50.761Z,4.13
2022-09-25T20:41:19.542Z,5.20
2022-09-25T20:43:51.044Z,4.20
2022-09-25T20:46:20.536Z,4.70
2022-09-25T20:48:51.024Z,4.60
2022-09-25T20:51:27.075Z,4.77
2022-09-25T20:53:57.693Z,3.80
2022-09-25T20:56:26.566Z,4.17
2022-09-25T20:58:56.081Z,4.30
2022-09-25T21:01:27.574Z,4.50
2022-09-25T21:03:55.882Z,5.63
2022-09-25T21:06:27.526Z,4.40
2022-09-25T21:08:57.118Z,4.13
2022-09-25T21:11:27.764Z,4.00
2022-09-25T21:13:58.192Z,4.93
2022-09-25T21:16:28.687Z,4.60
2022-09-25T21:18:58.418Z,3.67
2022-09-25T21:21:29.083Z,3.70
2022-09-25T21:23:58.959Z,3.90
2022-09-25T21:26:28.840Z,4.83
2022-09-25T21:28:58.552Z,3.50
2022-09-25T21:31:33.287Z,3.63
2022-09-25T21:34:02.573Z,3.67
2022-09-25T21:36:39.259Z,3.60
2022-09-25T21:39:07.856Z,3.80
2022-09-25T21:41:54.650Z,3.03
2022-09-25T21:44:36.974Z,3.37
2022-09-25T21:47:25.923Z,3.30
2022-09-25T21:49:56.672Z,3.20
2022-09-25T21:52:27.193Z,3.57
2022-09-25T21:54:55.257Z,3.03
2022-09-25T21:57:23.917Z,3.27
2022-09-25T21:59:51.864Z,3.53
2022-09-25T22:02:19.713Z,2.70
2022-09-25T22:04:48.012Z,2.60
2022-09-25T22:07:15.886Z,2.77
2022-09-25T22:09:45.150Z,3.53
2022-09-25T22:12:13.151Z,3.37
2022-09-25T22:14:41.117Z,2.80
2022-09-25T22:17:09.021Z,2.60
2022-09-25T22:19:37.014Z,2.53
2022-09-25T22:22:04.899Z,2.37
2022-09-25T22:24:32.941Z,2.77
2022-09-25T22:27:02.386Z,2.77
2022-09-25T22:29:31.555Z,2.80
2022-09-25T22:31:59.594Z,3.03
2022-09-25T22:34:29.241Z,2.57
2022-09-25T22:37:00.028Z,3.30
2022-09-25T22:39:29.601Z,2.93
2022-09-25T22:41:57.770Z,2.87
2022-09-25T22:44:27.262Z,3.10
2022-09-25T22:46:55.294Z,2.20
2022-09-25T22:49:23.189Z,2.70
2022-09-25T22:51:51.199Z,2.67
2022-09-25T22:54:19.741Z,2.87
2022-09-25T22:56:47.896Z,3.00
2022-09-25T22:59:17.967Z,2.83
2022-09-25T23:01:49.896Z,2.70
2022-09-25T23:04:21.267Z,2.50
2022-09-25T23:06:50.242Z,2.43
2022-09-25T23:09:20.281Z,2.60
2022-09-25T23:11:48.189Z,2.63
2022-09-25T23:14:19.608Z,2.23
2022-09-25T23:16:50.739Z,2.40
2022-09-25T23:19:19.478Z,2.00
2022-09-25T23:21:47.575Z,2.30
2022-09-25T23:24:17.417Z,1.90
2022-09-25T23:26:46.591Z,2.00
2022-09-25T23:29:15.688Z,2.37
2022-09-25T23:31:44.062Z,2.50
2022-09-25T23:34:13.489Z,2.10
2022-09-25T23:36:41.489Z,2.23
2022-09-25T23:39:11.540Z,2.30
2022-09-25T23:41:40.919Z,2.70
2022-09-25T23:44:10.412Z,2.53
2022-09-25T23:46:41.937Z,2.30
2022-09-25T23:49:11.006Z,2.40
2022-09-25T23:51:40.608Z,2.20
2022-09-25T23:54:09.196Z,2.20
2022-09-25T23:56:37.364Z,2.20
2022-09-25T23:59:06.116Z,3.00
